My Little Violet — ZCPE7 — position and weather

sailwx.info

Track history (hours):
 
Tides and Currents Weather Stations Pressure Air Temp Water Temp Dewpoint Dewpoint Depression Visibility Wind Speed Wind Dir Waves Ship Positions

My Little Violet

Last reported at 2017-Sep-15 21:56 UTC. Time now 2018-Apr-21 04:11 UTC.
Position N 41°11' E 017°34'.
Warning: this ship's position is months out of date.

Length 45 m; draft 2.9 m.

Type: Pleasure craft. MMSI: 319496000.

Date/timePositionNaut miles runAvg speedWind from/ knotsBaromVisibWave heightAir tempDewpointWater temp
2017-Sep-15 21:56N 41°11' E 017°34'712.8
2017-Sep-15 21:25N 41°06' E 017°41'11510.1
2017-Sep-15 10:02N 39°11' E 017°34'10812.5
2017-Sep-15 01:21N 37°54' E 015°58'512.4
2017-Sep-15 00:56N 37°54' E 015°51'512.0
2017-Sep-15 00:31N 37°55' E 015°45'612.3
2017-Sep-15 00:01N 37°58' E 015°38'612.8
2017-Sep-14 23:30N 38°04' E 015°36'815.1
2017-Sep-14 23:00N 38°11' E 015°36'613.0
2017-Sep-14 22:30N 38°17' E 015°40'713.0
2017-Sep-14 22:00N 38°22' E 015°36'713.5
2017-Sep-14 21:30N 38°27' E 015°30'713.9
2017-Sep-14 21:00N 38°33' E 015°24'813.9
2017-Sep-14 20:27N 38°38' E 015°18'713.5
2017-Sep-14 19:56N 38°44' E 015°12'36512.4
2017-Sep-13 14:28N 43°05' E 009°34'612.8
2017-Sep-13 14:00N 43°09' E 009°28'612.3
2017-Sep-13 13:30N 43°11' E 009°20'612.3
2017-Sep-13 13:00N 43°15' E 009°13'612.1
2017-Sep-13 12:30N 43°18' E 009°07'612.0
2017-Sep-13 11:58N 43°22' E 008°59'1312.1
2017-Sep-13 10:56N 43°30' E 008°46'  
Track history (hours):
 
Tides and Currents Weather Stations Pressure Air Temp Water Temp Dewpoint Dewpoint Depression Visibility Wind Speed Wind Dir Waves Ship Positions

My Little Violet

Last reported at 2017-Sep-15 21:56 UTC. Time now 2018-Apr-21 04:11 UTC.
Position N 41°11' E 017°34'.
Warning: this ship's position is months out of date.

Length 45 m; draft 2.9 m.

Type: Pleasure craft. MMSI: 319496000.

Date/timePositionNaut miles runAvg speedWind from/ knotsBaromVisibWave heightAir tempDewpointWater temp
2017-Sep-15 21:56N 41°11' E 017°34'712.8
2017-Sep-15 21:25N 41°06' E 017°41'11510.1
2017-Sep-15 10:02N 39°11' E 017°34'10812.5
2017-Sep-15 01:21N 37°54' E 015°58'512.4
2017-Sep-15 00:56N 37°54' E 015°51'512.0
2017-Sep-15 00:31N 37°55' E 015°45'612.3
2017-Sep-15 00:01N 37°58' E 015°38'612.8
2017-Sep-14 23:30N 38°04' E 015°36'815.1
2017-Sep-14 23:00N 38°11' E 015°36'613.0
2017-Sep-14 22:30N 38°17' E 015°40'713.0
2017-Sep-14 22:00N 38°22' E 015°36'713.5
2017-Sep-14 21:30N 38°27' E 015°30'713.9
2017-Sep-14 21:00N 38°33' E 015°24'813.9
2017-Sep-14 20:27N 38°38' E 015°18'713.5
2017-Sep-14 19:56N 38°44' E 015°12'36512.4
2017-Sep-13 14:28N 43°05' E 009°34'612.8
2017-Sep-13 14:00N 43°09' E 009°28'612.3
2017-Sep-13 13:30N 43°11' E 009°20'612.3
2017-Sep-13 13:00N 43°15' E 009°13'612.1
2017-Sep-13 12:30N 43°18' E 009°07'612.0
2017-Sep-13 11:58N 43°22' E 008°59'1312.1
2017-Sep-13 10:56N 43°30' E 008°46'  

Dump ship's entire track history